Time;durP1;ratioP1;P1;durP2;ratioP2;P2;SDS_P1;SDS_P2;PMS_P1;PMS_P2;Temp;Humidity;BMP_temperature;BMP_pressure;BME280_temperature;BME280_humidity;BME280_pressure;Samples;Min_cycle;Max_cycle;Signal;HPM_P1;HPM_P2
2022/02/13 00:00:47;;;;;;;;;;;;;;;2.15;59.30;101407.28;4292087;33;20007;-90
2022/02/13 00:03:13;;;;;;;;;;;;;;;2.17;59.30;101398.75;4291862;33;20442;-89
2022/02/13 00:05:38;;;;;;;;;;;;;;;2.16;59.30;101400.47;4291853;33;19980;-89
2022/02/13 00:08:03;;;;;;;;;;;;;;;1.99;59.29;101401.66;4291739;33;20116;-92
2022/02/13 00:10:29;;;;;;;;;;;;;;;2.01;59.29;101395.75;4304151;33;20015;-88
2022/02/13 00:12:54;;;;;;;;;;;;;;;2.03;59.29;101393.22;4304349;33;20003;-92
2022/02/13 00:15:19;;;;;;;;;;;;;;;1.94;59.29;101391.25;4291750;33;20081;-90
2022/02/13 00:17:47;;;;;;;;;;;;;;;1.93;59.28;101386.94;4291927;33;20000;-91
2022/02/13 00:20:12;;;;;;;;;;;;;;;1.94;59.29;101386.13;4304168;33;20010;-90
2022/02/13 00:22:40;;;;;;;;;;;;;;;1.99;59.29;101388.81;4291830;33;19992;-90
2022/02/13 00:25:06;;;;;;;;;;;;;;;2.00;59.29;101382.84;4292064;33;19998;-90
2022/02/13 00:27:31;;;;;;;;;;;;;;;1.85;59.28;101381.56;4291858;33;20059;-91
2022/02/13 00:29:56;;;;;;;;;;;;;;;1.79;59.28;101380.53;4291842;33;20018;-92
2022/02/13 00:32:23;;;;;;;;;;;;;;;1.81;59.28;101389.16;4291840;33;20027;-89
2022/02/13 00:34:48;;;;;;;;;;;;;;;1.57;59.26;101393.53;4292041;33;19964;-91
2022/02/13 00:37:16;;;;;;;;;;;;;;;1.61;59.26;101388.53;4292450;33;20014;-89
2022/02/13 00:39:41;;;;;;;;;;;;;;;1.56;59.26;101382.41;4293997;33;20014;-91
2022/02/13 00:42:07;;;;;;;;;;;;;;;1.46;59.25;101388.09;4294279;33;20040;-91
2022/02/13 00:50:39;;;;;;;;;;;;;;;1.65;59.27;101384.38;4533652;27;20088;-96
2022/02/13 00:53:08;;;;;;;;;;;;;;;1.59;59.26;101372.22;4325928;33;20031;-95
2022/02/13 00:55:35;;;;;;;;;;;;;;;1.52;59.26;101373.75;4312209;33;19990;-95
2022/02/13 00:58:00;;;;;;;;;;;;;;;1.70;59.27;101377.69;4312897;33;20342;-96
2022/02/13 01:00:26;;;;;;;;;;;;;;;1.62;59.28;101374.00;4325182;33;20014;-96
2022/02/13 01:02:54;;;;;;;;;;;;;;;1.66;59.27;101374.19;4314428;33;19983;-95
2022/02/13 01:05:19;;;;;;;;;;;;;;;1.59;59.26;101374.78;4321733;33;19968;-90
2022/02/13 01:07:45;;;;;;;;;;;;;;;1.43;59.26;101372.59;4310336;33;19999;-91
2022/02/13 01:10:10;;;;;;;;;;;;;;;1.46;59.25;101376.13;4334905;33;19980;-92
2022/02/13 01:12:35;;;;;;;;;;;;;;;1.53;59.26;101377.19;4323468;33;19999;-91
2022/02/13 01:15:01;;;;;;;;;;;;;;;1.52;59.26;101368.63;4323289;33;20027;-90
2022/02/13 01:17:48;;;;;;;;;;;;;;;;;;;;;
2022/02/13 01:20:13;;;;;;;;;;;;;;;1.48;59.26;101371.91;4335524;33;35642;-91
2022/02/13 01:22:52;;;;;;;;;;;;;;;1.37;59.25;101365.56;4323333;33;20002;-91
2022/02/13 01:25:20;;;;;;;;;;;;;;;1.43;59.25;101368.34;4324345;33;19975;-93
2022/02/13 01:27:46;;;;;;;;;;;;;;;1.52;59.26;101366.03;4336150;33;20004;-93
2022/02/13 01:30:11;;;;;;;;;;;;;;;1.30;59.24;101362.78;4323918;33;19983;-93
2022/02/13 01:32:39;;;;;;;;;;;;;;;1.11;59.24;101358.75;4336658;33;19997;-92
2022/02/13 01:35:05;;;;;;;;;;;;;;;1.27;59.25;101352.41;4323902;33;20023;-91
2022/02/13 01:37:30;;;;;;;;;;;;;;;1.34;59.25;101355.22;4348160;33;19995;-92
2022/02/13 01:39:55;;;;;;;;;;;;;;;1.43;59.26;101346.94;4323725;33;19988;-93
2022/02/13 01:42:21;;;;;;;;;;;;;;;1.36;59.25;101347.56;4335961;33;20360;-92
2022/02/13 01:44:46;;;;;;;;;;;;;;;1.42;59.26;101343.50;4323186;33;20032;-93
2022/02/13 01:47:11;;;;;;;;;;;;;;;1.34;59.25;101336.38;4335936;33;20005;-92
2022/02/13 01:49:39;;;;;;;;;;;;;;;1.41;59.26;101340.88;4323520;33;20068;-95
2022/02/13 01:52:04;;;;;;;;;;;;;;;1.39;59.25;101340.81;4327329;33;19983;-94
2022/02/13 01:54:40;;;;;;;;;;;;;;;1.35;59.25;101331.31;4339232;33;20266;-96
2022/02/13 02:57:21;;;;;;;;;;;;;;;0.54;59.20;101287.72;4921900;27;20052;-94
2022/02/13 02:59:46;;;;;;;;;;;;;;;0.60;59.21;101285.34;4319314;33;20011;-96
2022/02/13 03:02:11;;;;;;;;;;;;;;;0.49;59.20;101285.81;4294103;33;20016;-94
2022/02/13 03:04:37;;;;;;;;;;;;;;;0.59;59.21;101285.28;4319792;33;20028;-96
2022/02/13 03:07:02;;;;;;;;;;;;;;;0.54;59.20;101286.84;4320410;33;20086;-95
2022/02/13 03:09:27;;;;;;;;;;;;;;;0.52;59.20;101275.69;4320517;33;20040;-95
2022/02/13 03:11:52;;;;;;;;;;;;;;;0.39;59.19;101282.06;4320218;33;19996;-96
2022/02/13 03:14:21;;;;;;;;;;;;;;;0.28;59.18;101281.72;4322079;33;19980;-96
2022/02/13 03:16:46;;;;;;;;;;;;;;;0.39;59.20;101274.37;4335455;33;20040;-96
2022/02/13 03:19:13;;;;;;;;;;;;;;;0.20;59.18;101275.44;4325723;33;19995;-96
2022/02/13 03:21:40;;;;;;;;;;;;;;;0.10;59.18;101280.22;4323252;33;20008;-96
2022/02/13 03:24:07;;;;;;;;;;;;;;;0.06;59.17;101279.25;4324052;33;20330;-96
2022/02/13 03:26:34;;;;;;;;;;;;;;;0.21;59.18;101276.31;4311975;33;19980;-96
2022/02/13 03:28:59;;;;;;;;;;;;;;;0.16;59.18;101286.41;4324439;33;19980;-93
2022/02/13 03:31:24;;;;;;;;;;;;;;;-0.10;59.16;101279.50;4319505;33;20023;-94
2022/02/13 03:33:49;;;;;;;;;;;;;;;-0.28;59.16;101274.59;4319476;33;20285;-93
2022/02/13 03:36:14;;;;;;;;;;;;;;;-0.15;59.15;101270.81;4319163;33;19987;-93
2022/02/13 03:38:40;;;;;;;;;;;;;;;-0.23;59.16;101279.91;4318756;33;20127;-93
2022/02/13 03:41:05;;;;;;;;;;;;;;;-0.29;59.15;101275.41;4318805;33;20337;-93
2022/02/13 03:43:30;;;;;;;;;;;;;;;-0.38;59.15;101272.53;4318671;33;20243;-92
2022/02/13 03:45:55;;;;;;;;;;;;;;;-0.47;59.14;101275.62;4318704;33;19995;-92
2022/02/13 03:48:21;;;;;;;;;;;;;;;-0.47;59.14;101272.22;4318647;33;20039;-93
2022/02/13 03:50:46;;;;;;;;;;;;;;;-0.52;59.14;101279.69;4306736;33;19992;-93
2022/02/13 03:53:11;;;;;;;;;;;;;;;-0.47;59.14;101273.09;4306783;33;20046;-93
2022/02/13 03:55:36;;;;;;;;;;;;;;;-0.53;59.14;101267.72;4306886;33;20295;-92
2022/02/13 03:58:02;;;;;;;;;;;;;;;-0.52;59.14;101272.00;4296955;33;20027;-93
2022/02/13 04:00:27;;;;;;;;;;;;;;;-0.73;59.12;101272.09;4321556;33;20278;-93
2022/02/13 04:02:55;;;;;;;;;;;;;;;-0.63;59.14;101269.06;4309280;33;19998;-91
2022/02/13 04:05:20;;;;;;;;;;;;;;;-0.82;59.12;101268.31;4309623;33;19983;-93
2022/02/13 04:07:46;;;;;;;;;;;;;;;-0.80;59.13;101270.13;4308615;33;20036;-92
2022/02/13 04:10:12;;;;;;;;;;;;;;;-0.76;59.12;101258.31;4308601;33;20095;-92
2022/02/13 04:12:38;;;;;;;;;;;;;;;-0.73;59.12;101258.44;4310947;33;20051;-93
2022/02/13 04:15:03;;;;;;;;;;;;;;;-0.95;59.11;101252.53;4311494;33;20006;-94
2022/02/13 04:17:31;;;;;;;;;;;;;;;-0.77;59.12;101254.88;4311246;33;20293;-91
2022/02/13 04:19:56;;;;;;;;;;;;;;;-0.73;59.12;101253.31;4309379;33;20672;-91
2022/02/13 04:22:21;;;;;;;;;;;;;;;-1.01;59.12;101249.72;4309503;33;19988;-92
2022/02/13 04:24:47;;;;;;;;;;;;;;;-0.96;59.11;101247.31;4309567;33;20002;-91
2022/02/13 04:27:12;;;;;;;;;;;;;;;-1.15;59.11;101243.22;4309613;33;19992;-91
2022/02/13 04:29:37;;;;;;;;;;;;;;;-1.05;59.11;101247.84;4310159;33;20014;-91
2022/02/13 04:32:03;;;;;;;;;;;;;;;-1.07;59.11;101243.50;4310374;33;20035;-92
2022/02/13 04:34:28;;;;;;;;;;;;;;;-1.10;59.10;101245.94;4322579;33;19980;-92
2022/02/13 04:36:53;;;;;;;;;;;;;;;-0.71;59.13;101242.34;4310128;33;20030;-90
2022/02/13 04:39:18;;;;;;;;;;;;;;;-0.94;59.12;101246.59;4310326;33;20006;-91
2022/02/13 04:41:44;;;;;;;;;;;;;;;-1.10;59.10;101241.69;4309629;33;20015;-90
2022/02/13 04:44:09;;;;;;;;;;;;;;;-1.40;59.08;101243.06;4308791;33;20014;-91
2022/02/13 04:46:34;;;;;;;;;;;;;;;-1.35;59.09;101246.66;4309193;33;20025;-91
2022/02/13 04:49:00;;;;;;;;;;;;;;;-1.37;59.09;101235.50;4309645;33;20341;-91
2022/02/13 04:51:25;;;;;;;;;;;;;;;-1.41;59.09;101238.75;4309247;33;20051;-92
2022/02/13 04:53:50;;;;;;;;;;;;;;;-1.34;59.09;101231.41;4310156;33;20031;-93
2022/02/13 04:56:16;;;;;;;;;;;;;;;-1.38;59.08;101226.97;4310388;33;20298;-94
2022/02/13 04:58:41;;;;;;;;;;;;;;;-1.36;59.09;101229.59;4310742;33;20034;-93
2022/02/13 05:01:06;;;;;;;;;;;;;;;-1.41;59.09;101224.31;4310401;33;20352;-92
2022/02/13 05:03:32;;;;;;;;;;;;;;;-1.31;59.10;101223.84;4309975;33;19990;-89
2022/02/13 05:05:57;;;;;;;;;;;;;;;-1.26;59.09;101224.91;4308696;33;20010;-89
2022/02/13 05:08:22;;;;;;;;;;;;;;;-1.38;59.08;101226.13;4321142;33;20017;-91
2022/02/13 05:10:47;;;;;;;;;;;;;;;-1.32;59.09;101228.91;4308673;33;20058;-91
2022/02/13 05:13:13;;;;;;;;;;;;;;;-1.51;59.09;101223.87;4321650;33;19990;-91
2022/02/13 05:15:38;;;;;;;;;;;;;;;-1.38;59.08;101221.00;4333737;33;20407;-91
2022/02/13 05:18:03;;;;;;;;;;;;;;;-1.42;59.08;101222.56;4309489;33;20219;-91
2022/02/13 05:20:29;;;;;;;;;;;;;;;-1.88;59.06;101224.94;4309613;33;19992;-92
2022/02/13 05:22:54;;;;;;;;;;;;;;;-1.77;59.07;101223.69;4309046;33;19976;-91
2022/02/13 05:25:19;;;;;;;;;;;;;;;-1.94;59.06;101227.22;4309014;33;20274;-92
2022/02/13 05:27:44;;;;;;;;;;;;;;;-2.15;59.04;101232.28;4320770;33;20018;-91
2022/02/13 05:30:10;;;;;;;;;;;;;;;-2.12;59.04;101232.44;4309199;33;20526;-91
2022/02/13 05:32:35;;;;;;;;;;;;;;;-2.06;59.05;101219.94;4316486;33;20002;-96
2022/02/13 05:35:04;;;;;;;;;;;;;;;-1.85;59.06;101214.84;4330847;33;19991;-95
2022/02/13 05:37:32;;;;;;;;;;;;;;;-1.75;59.06;101219.50;4322737;33;20018;-92
2022/02/13 05:39:57;;;;;;;;;;;;;;;-2.04;59.05;101215.75;4310305;33;19984;-91
2022/02/13 05:42:24;;;;;;;;;;;;;;;-1.73;59.07;101215.34;4322827;33;20005;-92
2022/02/13 05:44:52;;;;;;;;;;;;;;;-1.88;59.06;101210.50;4335027;33;20010;-94
2022/02/13 05:47:17;;;;;;;;;;;;;;;-1.97;59.05;101216.87;4311756;33;19991;-95
2022/02/13 05:49:43;;;;;;;;;;;;;;;-2.17;59.05;101213.47;4312079;33;20023;-95
2022/02/13 05:52:08;;;;;;;;;;;;;;;-2.13;59.04;101220.44;4311785;33;19998;-95
2022/02/13 05:54:34;;;;;;;;;;;;;;;-1.95;59.06;101213.56;4310867;33;20005;-92
2022/02/13 05:56:59;;;;;;;;;;;;;;;-2.06;59.05;101222.47;4310648;33;20011;-91
2022/02/13 05:59:24;;;;;;;;;;;;;;;-2.06;59.05;101221.59;4322287;33;20015;-92
2022/02/13 06:01:53;;;;;;;;;;;;;;;-2.01;59.05;101215.88;4310384;33;19984;-95
2022/02/13 06:04:20;;;;;;;;;;;;;;;-1.97;59.05;101221.97;4310951;33;20043;-93
2022/02/13 06:06:51;;;;;;;;;;;;;;;-1.99;59.05;101218.50;4310623;33;19991;-93
2022/02/13 06:09:20;;;;;;;;;;;;;;;-1.93;59.06;101228.94;4310707;33;19989;-94
2022/02/13 06:11:45;;;;;;;;;;;;;;;-1.82;59.06;101214.09;4310898;33;19956;-93
2022/02/13 06:14:10;;;;;;;;;;;;;;;-1.84;59.06;101215.72;4310358;33;20040;-93
2022/02/13 06:16:36;;;;;;;;;;;;;;;-1.77;59.07;101215.16;4308849;33;20330;-90
2022/02/13 06:19:01;;;;;;;;;;;;;;;-1.72;59.07;101217.06;4321585;33;20049;-93
2022/02/13 06:21:26;;;;;;;;;;;;;;;-1.87;59.06;101226.69;4309528;33;20338;-94
2022/02/13 06:23:51;;;;;;;;;;;;;;;-1.63;59.07;101220.03;4321756;33;20035;-94
2022/02/13 06:26:17;;;;;;;;;;;;;;;-1.61;59.07;101225.19;4309428;33;20014;-92
2022/02/13 06:28:42;;;;;;;;;;;;;;;-1.60;59.07;101226.94;4309113;33;20030;-93
2022/02/13 06:31:09;;;;;;;;;;;;;;;-1.62;59.07;101226.87;4312858;33;20002;-96
2022/02/13 06:34:02;;;;;;;;;;;;;;;-1.43;59.08;101220.78;4333260;33;19995;-96
2022/02/13 06:36:33;;;;;;;;;;;;;;;-1.40;59.09;101220.94;4347073;33;19999;-96
2022/02/13 06:38:59;;;;;;;;;;;;;;;-1.49;59.08;101237.56;4329034;33;19956;-96
2022/02/13 06:41:35;;;;;;;;;;;;;;;-1.49;59.08;101227.34;4319925;33;20326;-96
2022/02/13 06:46:44;;;;;;;;;;;;;;;-1.17;59.10;101224.41;4667189;27;20062;-91
2022/02/13 06:49:10;;;;;;;;;;;;;;;-1.07;59.11;101220.50;4309625;33;19987;-91
2022/02/13 06:51:36;;;;;;;;;;;;;;;-0.93;59.12;101217.66;4321187;33;19998;-91
2022/02/13 06:54:01;;;;;;;;;;;;;;;-0.88;59.12;101219.53;4320237;33;19992;-90
2022/02/13 06:56:26;;;;;;;;;;;;;;;-0.89;59.12;101215.22;4308520;33;20000;-89
2022/02/13 06:58:52;;;;;;;;;;;;;;;-0.84;59.12;101217.13;4308516;33;20021;-90
2022/02/13 07:01:17;;;;;;;;;;;;;;;-0.63;59.14;101215.38;4310204;33;19999;-90
2022/02/13 07:03:42;;;;;;;;;;;;;;;-0.49;59.15;101215.84;4322013;33;20048;-90
2022/02/13 07:06:08;;;;;;;;;;;;;;;-0.23;59.15;101208.25;4322752;33;19995;-90
2022/02/13 07:08:33;;;;;;;;;;;;;;;-0.04;59.17;101206.34;4322867;33;20027;-90
2022/02/13 07:10:58;;;;;;;;;;;;;;;0.08;59.17;101203.34;4322961;33;19983;-89
2022/02/13 07:13:24;;;;;;;;;;;;;;;0.28;59.18;101194.66;4322657;33;20014;-90
2022/02/13 07:15:49;;;;;;;;;;;;;;;0.42;59.19;101202.75;4322899;33;20076;-88
2022/02/13 07:18:14;;;;;;;;;;;;;;;0.55;59.20;101193.78;4334966;33;20017;-90
2022/02/13 07:20:40;;;;;;;;;;;;;;;0.72;59.21;101191.75;4335072;33;19972;-90
2022/02/13 07:23:05;;;;;;;;;;;;;;;0.79;59.21;101194.53;4322852;33;19981;-90
2022/02/13 07:25:31;;;;;;;;;;;;;;;0.97;59.23;101189.13;4322595;33;20000;-90
2022/02/13 07:27:56;;;;;;;;;;;;;;;1.10;59.23;101182.63;4323389;33;20002;-91
2022/02/13 07:30:21;;;;;;;;;;;;;;;1.16;59.24;101188.78;4323686;33;19971;-92
2022/02/13 07:32:46;;;;;;;;;;;;;;;1.37;59.25;101190.25;4323713;33;20369;-92
2022/02/13 07:35:12;;;;;;;;;;;;;;;1.30;59.24;101189.22;4323555;33;20018;-91
2022/02/13 07:37:37;;;;;;;;;;;;;;;1.57;59.26;101183.97;4323286;33;20296;-91
2022/02/13 07:40:03;;;;;;;;;;;;;;;1.72;59.27;101183.53;4323425;33;20031;-91
2022/02/13 07:42:28;;;;;;;;;;;;;;;1.90;59.28;101183.16;4348096;33;20334;-92
2022/02/13 07:44:53;;;;;;;;;;;;;;;2.07;59.29;101180.16;4322806;33;19980;-90
2022/02/13 07:47:19;;;;;;;;;;;;;;;2.25;59.30;101169.47;4323997;33;20008;-91
2022/02/13 07:49:44;;;;;;;;;;;;;;;2.29;59.30;101175.56;4339292;33;20083;-92
2022/02/13 07:52:09;;;;;;;;;;;;;;;2.47;59.31;101173.44;4327487;33;20003;-92
2022/02/13 07:54:35;;;;;;;;;;;;;;;2.68;59.33;101162.78;4327519;33;19996;-91
2022/02/13 07:57:00;;;;;;;;;;;;;;;2.84;59.34;101161.41;4327854;33;19993;-91
2022/02/13 07:59:25;;;;;;;;;;;;;;;2.87;59.33;101161.50;4327027;33;20238;-91
2022/02/13 08:01:50;;;;;;;;;;;;;;;3.15;59.35;101152.66;4327338;33;20007;-92
2022/02/13 08:04:16;;;;;;;;;;;;;;;3.05;59.34;101154.16;4326600;33;19987;-92
2022/02/13 08:06:41;;;;;;;;;;;;;;;3.24;59.36;101153.69;4326652;33;20148;-89
2022/02/13 08:09:06;;;;;;;;;;;;;;;3.38;59.36;101153.97;4338242;33;19967;-90
2022/02/13 08:11:31;;;;;;;;;;;;;;;3.59;59.37;101149.25;4325529;33;20025;-87
2022/02/13 08:13:58;;;;;;;;;;;;;;;3.61;59.38;101152.72;4325288;33;20348;-88
2022/02/13 08:16:23;;;;;;;;;;;;;;;3.78;59.39;101139.25;4325346;33;19994;-88
2022/02/13 08:18:48;;;;;;;;;;;;;;;3.74;59.38;101151.22;4337289;32;20003;-89
2022/02/13 08:21:14;;;;;;;;;;;;;;;3.70;59.39;101152.00;4325076;33;20015;-88
2022/02/13 08:23:40;;;;;;;;;;;;;;;3.81;59.38;101137.63;4325080;33;19987;-88
2022/02/13 08:26:06;;;;;;;;;;;;;;;3.96;59.39;101145.59;4350845;32;20489;-88
2022/02/13 08:28:32;;;;;;;;;;;;;;;4.10;59.40;101134.66;4337144;33;19987;-88
2022/02/13 08:30:58;;;;;;;;;;;;;;;4.30;59.42;101130.69;4325110;33;20269;-88
2022/02/13 08:33:23;;;;;;;;;;;;;;;4.42;59.43;101130.88;4324668;32;20007;-87
2022/02/13 08:35:48;;;;;;;;;;;;;;;4.44;59.43;101139.50;4324689;33;20448;-87
2022/02/13 08:38:14;;;;;;;;;;;;;;;4.38;59.42;101136.84;4324876;33;20080;-87
2022/02/13 08:40:40;;;;;;;;;;;;;;;4.29;59.42;101134.12;4336834;33;19995;-86
2022/02/13 08:43:06;;;;;;;;;;;;;;;4.35;59.43;101126.47;4337585;33;19999;-87
2022/02/13 08:45:32;;;;;;;;;;;;;;;4.53;59.43;101126.75;4337493;33;19980;-88
2022/02/13 08:47:57;;;;;;;;;;;;;;;4.60;59.43;101122.53;4336848;32;20041;-89
2022/02/13 08:50:22;;;;;;;;;;;;;;;4.62;59.43;101120.84;4325439;33;20023;-87
2022/02/13 08:52:48;;;;;;;;;;;;;;;4.83;59.45;101110.81;4337566;33;20003;-88
2022/02/13 08:55:14;;;;;;;;;;;;;;;5.13;59.47;101102.59;4324510;33;20005;-88
2022/02/13 08:57:42;;;;;;;;;;;;;;;5.14;59.47;101117.22;4323089;33;19983;-88
2022/02/13 09:00:08;;;;;;;;;;;;;;;5.13;59.47;101119.78;4334570;33;20010;-88
2022/02/13 09:02:33;;;;;;;;;;;;;;;5.15;59.46;101121.53;4321725;33;20042;-87
2022/02/13 09:04:58;;;;;;;;;;;;;;;5.23;59.46;101114.78;4322069;33;19987;-88
2022/02/13 09:07:24;;;;;;;;;;;;;;;5.31;59.47;101108.81;4321837;33;20007;-87
2022/02/13 09:09:49;;;;;;;;;;;;;;;5.35;59.47;101110.59;4334025;33;19999;-88
2022/02/13 09:12:19;;;;;;;;;;;;;;;5.43;59.48;101108.94;4322035;33;19995;-88
2022/02/13 09:14:44;;;;;;;;;;;;;;;5.54;59.49;101095.31;4334608;33;20031;-87
2022/02/13 09:17:09;;;;;;;;;;;;;;;5.78;59.51;101098.97;4333835;33;20325;-88
2022/02/13 09:19:34;;;;;;;;;;;;;;;5.79;59.50;101098.97;4321295;33;30334;-85
2022/02/13 09:22:00;;;;;;;;;;;;;;;5.93;59.51;101093.12;4347925;33;19976;-89
2022/02/13 09:24:25;;;;;;;;;;;;;;;5.91;59.52;101098.25;4347742;32;19983;-87
2022/02/13 09:26:50;;;;;;;;;;;;;;;5.85;59.51;101098.16;4333899;33;19996;-88
2022/02/13 09:29:15;;;;;;;;;;;;;;;5.91;59.52;101093.06;4300233;33;797303;-86
2022/02/13 09:31:41;;;;;;;;;;;;;;;5.97;59.51;101087.13;4343029;32;19995;-87
2022/02/13 09:34:06;;;;;;;;;;;;;;;6.00;59.52;101090.59;4347503;33;19984;-87
2022/02/13 09:36:31;;;;;;;;;;;;;;;5.94;59.51;101081.94;4333696;33;20015;-86
2022/02/13 09:38:56;;;;;;;;;;;;;;;6.07;59.52;101079.44;4334033;33;20042;-87
2022/02/13 09:41:22;;;;;;;;;;;;;;;5.99;59.52;101082.81;4333853;33;20050;-87
2022/02/13 09:43:47;;;;;;;;;;;;;;;6.21;59.53;101082.13;4347312;33;19988;-86
2022/02/13 09:46:13;;;;;;;;;;;;;;;6.32;59.53;101074.44;4333152;33;20326;-85
2022/02/13 09:48:39;;;;;;;;;;;;;;;6.55;59.54;101078.03;4333305;33;20011;-85
2022/02/13 09:51:04;;;;;;;;;;;;;;;6.58;59.55;101077.16;4320772;33;20051;-87
2022/02/13 09:53:34;;;;;;;;;;;;;;;6.46;59.54;101071.09;4332757;33;20364;-88
2022/02/13 09:55:59;;;;;;;;;;;;;;;6.65;59.56;101066.88;4321357;33;19983;-86
2022/02/13 09:58:25;;;;;;;;;;;;;;;6.54;59.55;101062.50;4346749;33;20397;-88
2022/02/13 10:00:50;;;;;;;;;;;;;;;6.65;59.54;101063.44;4332877;33;20003;-86
2022/02/13 10:03:19;;;;;;;;;;;;;;;6.96;59.57;101054.94;4333212;33;20003;-86
2022/02/13 10:05:45;;;;;;;;;;;;;;;7.15;59.58;101048.09;4333830;33;19975;-87
2022/02/13 10:08:10;;;;;;;;;;;;;;;7.22;59.58;101046.38;4333903;33;20002;-88
2022/02/13 10:10:35;;;;;;;;;;;;;;;7.22;59.58;101039.47;4334066;33;20006;-86
2022/02/13 10:13:00;;;;;;;;;;;;;;;7.23;59.58;101029.97;4347499;32;19991;-87
2022/02/13 10:15:27;;;;;;;;;;;;;;;7.52;59.60;101028.28;4333833;33;20054;-86
2022/02/13 10:18:00;;;;;;;;;;;;;;;7.49;59.60;101028.28;4347338;33;20310;-88
2022/02/13 10:20:26;;;;;;;;;;;;;;;7.54;59.60;101020.50;4347366;32;20002;-87
2022/02/13 10:22:51;;;;;;;;;;;;;;;7.90;59.62;101022.25;4333926;33;19988;-89
2022/02/13 10:25:17;;;;;;;;;;;;;;;8.11;59.63;101019.63;4347536;33;19998;-89
2022/02/13 10:27:48;;;;;;;;;;;;;;;8.06;59.63;101011.00;4334034;32;20007;-90
2022/02/13 10:30:13;;;;;;;;;;;;;;;8.16;59.64;101014.44;4321219;33;19992;-89
2022/02/13 10:32:41;;;;;;;;;;;;;;;8.51;59.66;100998.78;4333578;33;19995;-89
2022/02/13 10:35:06;;;;;;;;;;;;;;;8.70;59.67;100992.66;4347296;33;20022;-88
2022/02/13 10:37:41;;;;;;;;;;;;;;;8.61;59.66;100990.97;4347119;33;20011;-89
2022/02/13 10:40:07;;;;;;;;;;;;;;;8.58;59.66;100992.72;4347201;32;20091;-91
2022/02/13 10:42:33;;;;;;;;;;;;;;;8.65;59.66;100983.16;4321416;33;20667;-88
2022/02/13 10:45:17;;;;;;;;;;;;;;;8.55;59.66;100979.75;4333494;33;19980;-90
2022/02/13 10:47:43;;;;;;;;;;;;;;;8.72;59.67;100979.66;4347336;33;20039;-88
2022/02/13 10:50:08;;;;;;;;;;;;;;;8.73;59.67;100978.78;4321620;33;20010;-90
2022/02/13 10:52:35;;;;;;;;;;;;;;;8.94;59.68;100968.31;4334202;33;20380;-91
2022/02/13 10:55:00;;;;;;;;;;;;;;;9.14;59.69;100963.84;4334222;33;20043;-90
2022/02/13 10:57:25;;;;;;;;;;;;;;;9.27;59.70;100963.78;4333793;33;19984;-91
2022/02/13 10:59:51;;;;;;;;;;;;;;;9.30;59.70;100954.22;4333331;33;20030;-89
2022/02/13 11:02:16;;;;;;;;;;;;;;;9.25;59.69;100958.59;4333487;33;20395;-90
2022/02/13 11:04:42;;;;;;;;;;;;;;;9.07;59.69;100950.91;4347018;33;20246;-91
2022/02/13 11:07:09;;;;;;;;;;;;;;;9.43;59.71;100947.16;4333699;33;20025;-91
2022/02/13 11:09:34;;;;;;;;;;;;;;;9.61;59.72;100943.56;4333902;33;20022;-88
2022/02/13 11:12:00;;;;;;;;;;;;;;;9.70;59.72;100936.56;4333621;33;19995;-91
2022/02/13 11:14:26;;;;;;;;;;;;;;;9.67;59.72;100936.56;4321424;33;19988;-92
2022/02/13 11:16:52;;;;;;;;;;;;;;;9.79;59.74;100925.19;4321509;33;19999;-91
2022/02/13 11:19:17;;;;;;;;;;;;;;;9.87;59.73;100919.91;4321450;33;20272;-89
2022/02/13 11:21:43;;;;;;;;;;;;;;;9.94;59.75;100914.66;4332529;33;20285;-91
2022/02/13 11:24:22;;;;;;;;;;;;;;;10.00;59.74;100909.38;4333638;33;19978;-90
2022/02/13 11:26:47;;;;;;;;;;;;;;;9.99;59.74;100912.84;4321426;33;19995;-90
2022/02/13 11:29:13;;;;;;;;;;;;;;;10.10;59.75;100905.78;4320747;33;19991;-89
2022/02/13 11:31:50;;;;;;;;;;;;;;;10.13;59.75;100902.25;4333442;33;19983;-88
2022/02/13 11:34:22;;;;;;;;;;;;;;;10.35;59.76;100895.09;4321684;33;19988;-87
2022/02/13 11:36:54;;;;;;;;;;;;;;;10.25;59.76;100883.09;4321165;33;20341;-89
2022/02/13 11:39:38;;;;;;;;;;;;;;;10.42;59.77;100884.59;4321227;33;20047;-91
2022/02/13 11:42:04;;;;;;;;;;;;;;;10.44;59.77;100884.59;4332975;33;19999;-91
2022/02/13 11:44:32;;;;;;;;;;;;;;;10.57;59.78;100880.91;4333545;33;20042;-90
2022/02/13 11:46:58;;;;;;;;;;;;;;;10.44;59.77;100875.03;4333279;33;19992;-90
2022/02/13 11:49:23;;;;;;;;;;;;;;;10.45;59.77;100868.94;4333665;33;19987;-91
2022/02/13 11:51:55;;;;;;;;;;;;;;;10.54;59.77;100867.09;4333392;33;20015;-91
2022/02/13 11:54:40;;;;;;;;;;;;;;;10.20;59.76;100864.06;4346964;33;19975;-90
2022/02/13 11:57:06;;;;;;;;;;;;;;;10.35;59.76;100866.47;4346795;33;20430;-87
2022/02/13 11:59:56;;;;;;;;;;;;;;;10.25;59.76;100859.66;4346514;33;19991;-86
2022/02/13 12:02:30;;;;;;;;;;;;;;;10.42;59.77;100855.13;4346771;33;20582;-87
2022/02/13 12:05:16;;;;;;;;;;;;;;;10.39;59.76;100852.53;4346396;33;19971;-85
2022/02/13 12:07:44;;;;;;;;;;;;;;;10.55;59.78;100846.22;4346193;33;20038;-84
2022/02/13 12:10:09;;;;;;;;;;;;;;;10.69;59.79;100848.66;4346736;33;20003;-85
2022/02/13 12:12:35;;;;;;;;;;;;;;;10.55;59.76;100834.97;4346711;33;20277;-84
2022/02/13 12:15:00;;;;;;;;;;;;;;;10.24;59.76;100838.00;4331665;33;28603;-85
2022/02/13 12:17:26;;;;;;;;;;;;;;;10.41;59.77;100837.78;4345471;33;20018;-88
2022/02/13 12:20:04;;;;;;;;;;;;;;;10.51;59.77;100825.47;4346383;33;20027;-87
2022/02/13 12:22:30;;;;;;;;;;;;;;;10.57;59.78;100825.38;4332347;33;19971;-87
2022/02/13 12:24:56;;;;;;;;;;;;;;;10.53;59.77;100824.56;4320452;33;20473;-86
2022/02/13 12:27:22;;;;;;;;;;;;;;;10.47;59.76;100816.00;4320040;33;19991;-87
2022/02/13 12:29:48;;;;;;;;;;;;;;;10.52;59.77;100815.03;4319864;33;20021;-87
2022/02/13 12:32:13;;;;;;;;;;;;;;;10.61;59.77;100811.44;4332352;33;20299;-87
2022/02/13 12:34:49;;;;;;;;;;;;;;;10.56;59.78;100810.66;4334171;33;20471;-88
2022/02/13 12:37:14;;;;;;;;;;;;;;;10.45;59.76;100803.00;4322367;33;20023;-87
2022/02/13 12:39:39;;;;;;;;;;;;;;;10.59;59.77;100789.75;4334400;33;20282;-87
2022/02/13 12:42:04;;;;;;;;;;;;;;;10.60;59.78;100794.09;4322241;33;20021;-88
2022/02/13 12:44:50;;;;;;;;;;;;;;;10.72;59.78;100783.50;4322246;33;20000;-87
2022/02/13 12:47:17;;;;;;;;;;;;;;;10.79;59.79;100779.91;4347716;33;20320;-88
2022/02/13 12:49:42;;;;;;;;;;;;;;;10.96;59.80;100784.84;4334214;33;19983;-85
2022/02/13 12:52:09;;;;;;;;;;;;;;;11.01;59.80;100777.78;4347457;33;30692;-86
2022/02/13 12:54:34;;;;;;;;;;;;;;;10.99;59.79;100762.19;4334663;33;19968;-85
2022/02/13 12:57:15;;;;;;;;;;;;;;;10.84;59.79;100774.59;4322428;33;20011;-85
2022/02/13 12:59:41;;;;;;;;;;;;;;;10.70;59.79;100772.25;4334191;33;20022;-85
2022/02/13 13:02:19;;;;;;;;;;;;;;;10.87;59.79;100765.00;4333768;33;19979;-86
2022/02/13 13:04:44;;;;;;;;;;;;;;;10.81;59.79;100765.09;4334285;33;19984;-85
2022/02/13 13:07:19;;;;;;;;;;;;;;;10.52;59.77;100760.38;4333879;33;20027;-85
2022/02/13 13:09:45;;;;;;;;;;;;;;;10.74;59.78;100763.50;4334071;33;19999;-85
2022/02/13 13:12:11;;;;;;;;;;;;;;;10.84;59.79;100752.03;4347777;33;19971;-85
2022/02/13 13:14:36;;;;;;;;;;;;;;;10.72;59.78;100755.72;4321697;33;19983;-86
2022/02/13 13:17:08;;;;;;;;;;;;;;;10.86;59.80;100747.66;4333762;33;19983;-85
2022/02/13 13:19:34;;;;;;;;;;;;;;;10.82;59.79;100748.59;4321673;33;19999;-86
2022/02/13 13:21:59;;;;;;;;;;;;;;;10.85;59.79;100745.06;4334472;33;19998;-86
2022/02/13 13:24:27;;;;;;;;;;;;;;;10.93;59.80;100735.41;4334320;33;19983;-87
2022/02/13 13:26:54;;;;;;;;;;;;;;;10.90;59.80;100732.84;4334388;33;19979;-87
2022/02/13 13:29:23;;;;;;;;;;;;;;;10.76;59.79;100728.72;4334375;33;19991;-86
2022/02/13 13:31:55;;;;;;;;;;;;;;;10.75;59.78;100732.22;4347703;33;19996;-85
2022/02/13 13:34:21;;;;;;;;;;;;;;;10.63;59.78;100732.41;4321945;33;19989;-87
2022/02/13 13:36:46;;;;;;;;;;;;;;;10.66;59.78;100731.53;4347636;33;19988;-86
2022/02/13 13:39:31;;;;;;;;;;;;;;;10.55;59.78;100731.69;4333951;33;20003;-87
2022/02/13 13:41:57;;;;;;;;;;;;;;;10.66;59.78;100718.50;4334411;33;20352;-87
2022/02/13 13:44:23;;;;;;;;;;;;;;;10.65;59.78;100709.84;4333063;33;19995;-87
2022/02/13 13:46:49;;;;;;;;;;;;;;;10.74;59.78;100711.41;4334009;33;19983;-87
2022/02/13 13:49:14;;;;;;;;;;;;;;;10.72;59.79;100705.37;4321717;33;20634;-88